createdAt,value
2017-12-22T00:00:50.546Z,102343.52
2017-12-22T00:01:53.012Z,102344.27
2017-12-22T00:02:55.493Z,102345.30
2017-12-22T00:03:57.969Z,102337.80
2017-12-22T00:05:00.430Z,102339.72
2017-12-22T00:06:02.900Z,102335.64
2017-12-22T00:07:05.370Z,102334.72
2017-12-22T00:08:07.864Z,102332.23
2017-12-22T00:09:10.324Z,102334.66
2017-12-22T00:10:12.805Z,102330.05
2017-12-22T00:11:15.285Z,102332.41
2017-12-22T00:12:17.768Z,102339.89
2017-12-22T00:13:20.240Z,102337.22
2017-12-22T00:14:22.753Z,102324.36
2017-12-22T00:15:25.216Z,102326.74
2017-12-22T00:16:27.681Z,102323.72
2017-12-22T00:17:30.138Z,102325.77
2017-12-22T00:18:32.621Z,102317.63
2017-12-22T00:19:35.082Z,102317.88
2017-12-22T00:20:37.556Z,102323.34
2017-12-22T00:21:40.018Z,102328.39
2017-12-22T00:22:42.494Z,102322.53
2017-12-22T00:23:44.968Z,102320.57
2017-12-22T00:24:47.449Z,102327.37
2017-12-22T00:25:49.924Z,102319.42
2017-12-22T00:26:52.391Z,102322.84
2017-12-22T00:27:54.866Z,102322.72
2017-12-22T00:28:57.346Z,102317.72
2017-12-22T00:29:59.832Z,102317.87
2017-12-22T00:31:02.304Z,102321.58
2017-12-22T00:32:04.767Z,102323.19
2017-12-22T00:33:07.249Z,102320.98
2017-12-22T00:34:09.725Z,102316.83
2017-12-22T00:35:12.190Z,102317.87
2017-12-22T00:36:14.659Z,102314.06
2017-12-22T00:37:17.114Z,102316.83
2017-12-22T00:38:19.586Z,102312.09
2017-12-22T00:39:22.074Z,102314.56
2017-12-22T00:40:24.536Z,102312.90
2017-12-22T00:41:27.013Z,102309.88
2017-12-22T00:42:29.482Z,102301.08
2017-12-22T00:43:31.976Z,102303.84
2017-12-22T00:44:34.454Z,102300.23
2017-12-22T00:45:36.925Z,102309.52
2017-12-22T00:46:39.402Z,102301.78
2017-12-22T00:47:41.895Z,102307.38
2017-12-22T00:48:44.360Z,102302.55
2017-12-22T00:49:46.823Z,102300.77
2017-12-22T00:50:49.317Z,102303.45
2017-12-22T00:51:51.778Z,102301.06
2017-12-22T00:52:54.251Z,102298.86
2017-12-22T00:53:56.731Z,102294.84
2017-12-22T00:54:59.214Z,102296.56
2017-12-22T00:56:01.691Z,102301.34
2017-12-22T00:57:04.168Z,102295.06
2017-12-22T00:58:06.627Z,102294.75
2017-12-22T00:59:09.090Z,102299.77
2017-12-22T01:00:11.565Z,102297.42
2017-12-22T01:01:14.022Z,102298.05
2017-12-22T01:02:16.494Z,102290.11
2017-12-22T01:03:18.965Z,102288.65
2017-12-22T01:04:21.435Z,102289.38
2017-12-22T01:05:23.910Z,102286.22
2017-12-22T01:06:26.385Z,102283.61
2017-12-22T01:07:28.849Z,102280.57
2017-12-22T01:08:31.323Z,102281.47
2017-12-22T01:09:33.787Z,102287.36
2017-12-22T01:10:36.242Z,102284.65
2017-12-22T01:11:38.720Z,102284.41
2017-12-22T01:12:41.217Z,102288.18
2017-12-22T01:13:43.792Z,102284.95
2017-12-22T01:14:46.265Z,102287.28
2017-12-22T01:15:54.275Z,102285.09
2017-12-22T01:17:02.356Z,102284.22
2017-12-22T01:19:39.758Z,102286.17
2017-12-22T01:20:42.231Z,102297.17
2017-12-22T01:21:44.706Z,102297.48
2017-12-22T01:22:47.196Z,102293.42
2017-12-22T01:23:49.659Z,102288.42
2017-12-22T01:24:52.137Z,102285.60
2017-12-22T01:25:54.636Z,102288.73
2017-12-22T01:26:57.096Z,102289.12
2017-12-22T01:27:59.607Z,102292.17
2017-12-22T01:29:02.078Z,102287.25
2017-12-22T01:30:04.535Z,102291.05
2017-12-22T01:31:07.005Z,102283.32
2017-12-22T01:32:09.486Z,102287.70
2017-12-22T01:33:11.951Z,102289.59
2017-12-22T01:34:14.428Z,102283.57
2017-12-22T01:35:16.901Z,102281.25
2017-12-22T01:36:19.381Z,102289.71
2017-12-22T01:37:21.876Z,102284.13
2017-12-22T01:38:24.343Z,102276.67
2017-12-22T01:39:26.806Z,102278.30
2017-12-22T01:40:29.295Z,102282.11
2017-12-22T01:41:31.836Z,102277.59
2017-12-22T01:42:34.337Z,102275.12
2017-12-22T01:43:36.882Z,102274.42
2017-12-22T01:44:39.364Z,102275.43
2017-12-22T01:45:41.826Z,102277.64
2017-12-22T01:46:44.309Z,102271.23
2017-12-22T01:47:47.635Z,102276.43
2017-12-22T01:48:50.116Z,102270.06
2017-12-22T01:49:52.605Z,102273.59
2017-12-22T01:50:55.066Z,102272.41
2017-12-22T01:51:57.536Z,102274.00
2017-12-22T01:53:00.024Z,102269.88
2017-12-22T01:54:02.498Z,102270.14
2017-12-22T01:55:04.980Z,102268.88
2017-12-22T01:56:07.457Z,102267.37
2017-12-22T01:57:09.932Z,102265.83
2017-12-22T01:58:12.416Z,102269.73
2017-12-22T01:59:14.880Z,102269.97
2017-12-22T02:00:17.339Z,102267.77
2017-12-22T02:01:19.799Z,102268.31
2017-12-22T02:02:22.404Z,102267.11
2017-12-22T02:03:24.909Z,102265.81
2017-12-22T02:04:27.396Z,102265.17
2017-12-22T02:05:29.929Z,102265.78
2017-12-22T02:06:32.369Z,102263.38
2017-12-22T02:07:34.851Z,102260.22
2017-12-22T02:08:37.331Z,102265.48
2017-12-22T02:09:39.801Z,102256.58
2017-12-22T02:10:42.303Z,102259.20
2017-12-22T02:11:44.828Z,102256.75
2017-12-22T02:12:47.302Z,102257.53
2017-12-22T02:13:49.787Z,102257.17
2017-12-22T02:14:52.265Z,102254.33
2017-12-22T02:15:54.753Z,102257.36
2017-12-22T02:17:00.339Z,102259.97
2017-12-22T02:18:02.807Z,102256.92
2017-12-22T02:19:05.305Z,102257.23
2017-12-22T02:20:07.767Z,102254.60
2017-12-22T02:21:10.221Z,102256.17
2017-12-22T02:22:12.678Z,102251.91
2017-12-22T02:23:15.152Z,102255.09
2017-12-22T02:24:17.656Z,102249.95
2017-12-22T02:25:20.149Z,102247.44
2017-12-22T02:26:22.606Z,102245.66
2017-12-22T02:27:25.076Z,102241.98
2017-12-22T02:28:27.554Z,102243.78
2017-12-22T02:29:30.057Z,102241.83
2017-12-22T02:30:36.810Z,102238.89
2017-12-22T02:31:39.293Z,102238.52
2017-12-22T02:32:46.955Z,102238.98
2017-12-22T02:33:49.428Z,102242.14
2017-12-22T02:34:51.951Z,102239.28
2017-12-22T02:35:54.430Z,102243.05
2017-12-22T02:36:56.900Z,102233.36
2017-12-22T02:37:59.365Z,102231.38
2017-12-22T02:39:01.831Z,102232.48
2017-12-22T02:40:04.312Z,102233.58
2017-12-22T02:41:06.775Z,102230.38
2017-12-22T02:42:09.254Z,102229.11
2017-12-22T02:43:11.749Z,102231.85
2017-12-22T02:44:14.207Z,102231.34
2017-12-22T02:45:16.697Z,102228.34
2017-12-22T02:46:19.177Z,102222.73
2017-12-22T02:47:21.653Z,102224.71
2017-12-22T02:48:24.129Z,102223.39
2017-12-22T02:49:26.591Z,102225.72
2017-12-22T02:50:29.064Z,102225.05
2017-12-22T02:51:31.537Z,102221.44
2017-12-22T02:52:34.025Z,102218.94
2017-12-22T02:53:36.517Z,102221.44
2017-12-22T02:54:38.987Z,102227.48
2017-12-22T02:55:41.477Z,102225.47
2017-12-22T02:56:43.965Z,102225.38
2017-12-22T02:57:46.439Z,102221.56
2017-12-22T02:58:48.916Z,102222.81
2017-12-22T02:59:52.564Z,102220.73
2017-12-22T03:00:55.049Z,102223.31
2017-12-22T03:01:57.520Z,102223.06
2017-12-22T03:02:59.997Z,102223.13
2017-12-22T03:04:02.473Z,102227.77
2017-12-22T03:05:04.948Z,102226.20
2017-12-22T03:06:07.406Z,102220.27
2017-12-22T03:07:09.880Z,102221.25
2017-12-22T03:08:12.338Z,102223.39
2017-12-22T03:09:14.821Z,102222.22
2017-12-22T03:10:17.301Z,102221.32
2017-12-22T03:11:19.763Z,102219.91
2017-12-22T03:12:22.240Z,102220.77
2017-12-22T03:13:24.694Z,102223.50
2017-12-22T03:14:27.157Z,102216.89
2017-12-22T03:15:29.636Z,102215.72
2017-12-22T03:16:32.120Z,102216.59
2017-12-22T03:17:34.594Z,102214.45
2017-12-22T03:18:37.063Z,102210.77
2017-12-22T03:19:39.543Z,102214.59
2017-12-22T03:20:42.020Z,102215.04
2017-12-22T03:21:44.492Z,102204.58
2017-12-22T03:22:46.959Z,102212.55
2017-12-22T03:23:49.436Z,102214.02
2017-12-22T03:24:51.909Z,102207.76
2017-12-22T03:25:54.367Z,102207.88
2017-12-22T03:26:56.831Z,102206.13
2017-12-22T03:27:59.388Z,102204.16
2017-12-22T03:29:01.847Z,102206.19
2017-12-22T03:30:04.307Z,102204.45
2017-12-22T03:31:06.770Z,102202.89
2017-12-22T03:32:09.256Z,102200.98
2017-12-22T03:33:11.736Z,102202.86
2017-12-22T03:34:14.290Z,102202.11
2017-12-22T03:35:16.769Z,102199.05
2017-12-22T03:36:19.230Z,102192.37
2017-12-22T03:37:21.695Z,102198.61
2017-12-22T03:38:24.169Z,102196.39
2017-12-22T03:39:26.631Z,102195.68
2017-12-22T03:40:29.090Z,102198.30
2017-12-22T03:41:31.569Z,102194.80
2017-12-22T03:42:34.072Z,102202.94
2017-12-22T03:43:36.534Z,102200.31
2017-12-22T03:44:39.013Z,102203.53
2017-12-22T03:45:41.475Z,102201.31
2017-12-22T03:46:43.959Z,102194.67
2017-12-22T03:47:46.439Z,102193.09
2017-12-22T03:48:48.916Z,102193.88
2017-12-22T03:49:51.378Z,102193.83
2017-12-22T03:50:53.844Z,102192.20
2017-12-22T03:51:56.302Z,102189.97
2017-12-22T03:52:58.782Z,102195.78
2017-12-22T03:54:01.248Z,102186.65
2017-12-22T03:55:03.717Z,102185.46
2017-12-22T03:56:06.185Z,102188.75
2017-12-22T03:57:08.670Z,102183.36
2017-12-22T03:58:11.134Z,102186.37
2017-12-22T03:59:13.616Z,102188.75
2017-12-22T04:00:16.078Z,102184.99
2017-12-22T04:01:18.534Z,102187.37
2017-12-22T04:02:21.009Z,102185.84
2017-12-22T04:03:23.474Z,102186.47
2017-12-22T04:04:25.949Z,102190.36
2017-12-22T04:05:28.421Z,102188.28
2017-12-22T04:06:30.953Z,102185.10
2017-12-22T04:07:33.406Z,102185.97
2017-12-22T04:08:35.862Z,102187.31
2017-12-22T04:09:38.412Z,102186.59
2017-12-22T04:10:40.870Z,102180.24
2017-12-22T04:11:43.348Z,102187.11
2017-12-22T04:12:45.844Z,102184.77
2017-12-22T04:13:48.320Z,102187.52
2017-12-22T04:14:50.794Z,102191.36
2017-12-22T04:15:53.251Z,102183.67
2017-12-22T04:16:55.717Z,102186.28
2017-12-22T04:17:58.207Z,102187.74
2017-12-22T04:19:00.700Z,102191.23
2017-12-22T04:20:03.176Z,102182.37
2017-12-22T04:21:05.651Z,102185.59
2017-12-22T04:22:08.107Z,102184.38
2017-12-22T04:23:10.590Z,102188.33
2017-12-22T04:24:13.042Z,102187.66
2017-12-22T04:25:15.502Z,102177.36
2017-12-22T04:26:17.967Z,102184.98
2017-12-22T04:27:20.461Z,102180.88
2017-12-22T04:28:22.947Z,102180.53
2017-12-22T04:29:25.423Z,102183.57
2017-12-22T04:30:27.907Z,102175.02
2017-12-22T04:31:30.388Z,102175.70
2017-12-22T04:32:32.858Z,102170.20
2017-12-22T04:33:35.356Z,102171.91
2017-12-22T04:34:37.831Z,102166.01
2017-12-22T04:35:40.305Z,102169.42
2017-12-22T04:36:42.780Z,102168.39
2017-12-22T04:37:45.243Z,102166.59
2017-12-22T04:38:47.736Z,102168.66
2017-12-22T04:39:50.205Z,102170.56
2017-12-22T04:40:52.691Z,102172.94
2017-12-22T04:41:55.143Z,102168.73
2017-12-22T04:42:57.603Z,102170.45
2017-12-22T04:44:00.113Z,102172.13
2017-12-22T04:45:02.574Z,102169.50
2017-12-22T04:46:05.095Z,102171.72
2017-12-22T04:47:07.561Z,102171.52
2017-12-22T04:48:10.030Z,102174.30
2017-12-22T04:49:12.518Z,102179.73
2017-12-22T04:50:14.982Z,102175.04
2017-12-22T04:51:17.432Z,102173.20
2017-12-22T04:52:19.883Z,102171.72
2017-12-22T04:53:22.343Z,102182.59
2017-12-22T04:54:24.832Z,102181.31
2017-12-22T04:55:27.308Z,102185.43
2017-12-22T04:56:29.777Z,102188.97
2017-12-22T04:57:32.226Z,102187.73
2017-12-22T04:58:34.689Z,102184.55
2017-12-22T04:59:37.186Z,102178.25
2017-12-22T05:00:39.657Z,102178.95
2017-12-22T05:01:42.120Z,102172.20
2017-12-22T05:02:44.585Z,102169.73
2017-12-22T05:03:47.042Z,102172.24
2017-12-22T05:04:49.544Z,102168.06
2017-12-22T05:05:52.011Z,102167.95
2017-12-22T05:06:54.462Z,102168.06
2017-12-22T05:07:56.915Z,102168.55
2017-12-22T05:08:59.366Z,102174.02
2017-12-22T05:10:01.838Z,102171.84
2017-12-22T05:11:04.290Z,102170.73
2017-12-22T05:12:06.764Z,102178.94
2017-12-22T05:13:09.236Z,102168.56
2017-12-22T05:14:11.712Z,102169.97
2017-12-22T05:15:14.181Z,102174.97
2017-12-22T05:16:16.649Z,102173.65
2017-12-22T05:17:19.109Z,102172.21
2017-12-22T05:18:21.563Z,102170.26
2017-12-22T05:19:24.040Z,102173.75
2017-12-22T05:20:26.528Z,102176.16
2017-12-22T05:21:28.998Z,102172.70
2017-12-22T05:22:31.468Z,102169.09
2017-12-22T05:23:33.936Z,102161.52
2017-12-22T05:24:36.426Z,102158.45
2017-12-22T05:25:38.894Z,102165.21
2017-12-22T05:26:41.356Z,102166.56
2017-12-22T05:27:43.828Z,102175.73
2017-12-22T05:28:46.300Z,102172.23
2017-12-22T05:29:48.766Z,102175.61
2017-12-22T05:30:51.234Z,102169.93
2017-12-22T05:31:53.704Z,102167.83
2017-12-22T05:32:56.215Z,102173.65
2017-12-22T05:33:58.682Z,102175.31
2017-12-22T05:35:01.143Z,102179.08
2017-12-22T05:36:03.638Z,102173.28
2017-12-22T05:37:06.107Z,102173.70
2017-12-22T05:38:08.572Z,102171.55
2017-12-22T05:39:11.025Z,102168.30
2017-12-22T05:40:13.489Z,102168.78
2017-12-22T05:41:15.966Z,102167.00
2017-12-22T05:42:18.429Z,102171.24
2017-12-22T05:43:20.914Z,102165.28
2017-12-22T05:44:23.366Z,102166.76
2017-12-22T05:45:25.819Z,102171.48
2017-12-22T05:46:28.365Z,102168.03
2017-12-22T05:47:30.819Z,102166.64
2017-12-22T05:48:34.386Z,102169.66
2017-12-22T05:49:36.838Z,102166.13
2017-12-22T05:50:39.290Z,102165.33
2017-12-22T05:51:41.773Z,102171.88
2017-12-22T05:52:44.246Z,102166.13
2017-12-22T05:53:46.713Z,102168.87
2017-12-22T05:54:49.167Z,102172.84
2017-12-22T05:55:51.668Z,102170.45
2017-12-22T05:56:54.142Z,102163.27
2017-12-22T05:57:57.551Z,102167.03
2017-12-22T05:58:59.998Z,102170.33
2017-12-22T06:00:02.489Z,102170.09
2017-12-22T06:01:04.956Z,102170.22
2017-12-22T06:02:07.431Z,102170.02
2017-12-22T06:03:09.896Z,102163.61
2017-12-22T06:04:12.375Z,102169.14
2017-12-22T06:05:14.835Z,102165.84
2017-12-22T06:06:17.302Z,102166.13
2017-12-22T06:07:19.802Z,102170.85
2017-12-22T06:08:22.264Z,102170.22
2017-12-22T06:09:24.748Z,102168.67
2017-12-22T06:10:27.207Z,102164.22
2017-12-22T06:11:29.668Z,102163.94
2017-12-22T06:12:32.152Z,102165.89
2017-12-22T06:13:34.610Z,102163.98
2017-12-22T06:14:37.062Z,102167.39
2017-12-22T06:15:39.510Z,102168.27
2017-12-22T06:16:41.958Z,102163.45
2017-12-22T06:17:44.438Z,102169.22
2017-12-22T06:18:46.908Z,102163.86
2017-12-22T06:19:49.365Z,102176.02
2017-12-22T06:20:51.839Z,102171.05
2017-12-22T06:21:54.290Z,102171.48
2017-12-22T06:22:56.775Z,102173.74
2017-12-22T06:23:59.241Z,102168.55
2017-12-22T06:25:01.702Z,102171.61
2017-12-22T06:26:04.164Z,102168.47
2017-12-22T06:27:06.623Z,102176.05
2017-12-22T06:28:09.135Z,102173.63
2017-12-22T06:29:11.576Z,102174.42
2017-12-22T06:30:14.061Z,102174.39
2017-12-22T06:31:16.510Z,102173.98
2017-12-22T06:32:18.976Z,102175.26
2017-12-22T06:33:21.447Z,102174.27
2017-12-22T06:34:23.913Z,102170.89
2017-12-22T06:35:26.381Z,102173.74
2017-12-22T06:36:28.844Z,102175.33
2017-12-22T06:37:31.310Z,102176.57
2017-12-22T06:38:33.795Z,102174.43
2017-12-22T06:39:36.243Z,102175.77
2017-12-22T06:40:38.695Z,102173.11
2017-12-22T06:41:41.155Z,102164.42
2017-12-22T06:42:43.616Z,102168.42
2017-12-22T06:43:46.095Z,102175.38
2017-12-22T06:44:48.549Z,102174.86
2017-12-22T06:45:51.016Z,102172.75
2017-12-22T06:46:53.467Z,102177.88
2017-12-22T06:47:56.296Z,102178.02
2017-12-22T06:48:58.771Z,102180.59
2017-12-22T06:50:01.254Z,102180.35
2017-12-22T06:51:03.729Z,102176.12
2017-12-22T06:52:06.180Z,102177.99
2017-12-22T06:53:08.649Z,102178.67
2017-12-22T06:54:11.134Z,102175.58
2017-12-22T06:55:13.582Z,102170.66
2017-12-22T06:56:16.044Z,102175.06
2017-12-22T06:57:18.498Z,102170.66
2017-12-22T06:58:20.946Z,102177.08
2017-12-22T06:59:23.418Z,102172.95
2017-12-22T07:00:25.884Z,102165.45
2017-12-22T07:01:28.335Z,102173.38
2017-12-22T07:02:30.823Z,102168.52
2017-12-22T07:03:33.289Z,102172.59
2017-12-22T07:04:35.785Z,102170.17
2017-12-22T07:05:38.252Z,102174.86
2017-12-22T07:06:40.705Z,102178.98
2017-12-22T07:07:43.173Z,102175.45
2017-12-22T07:08:45.618Z,102177.28
2017-12-22T07:09:48.091Z,102176.69
2017-12-22T07:10:50.546Z,102175.86
2017-12-22T07:11:52.994Z,102174.54
2017-12-22T07:12:55.673Z,102176.55
2017-12-22T07:13:58.140Z,102179.25
2017-12-22T07:15:00.610Z,102170.77
2017-12-22T07:16:03.076Z,102175.02
2017-12-22T07:17:05.530Z,102179.03
2017-12-22T07:18:07.978Z,102175.19
2017-12-22T07:19:10.440Z,102176.45
2017-12-22T07:20:12.933Z,102177.59
2017-12-22T07:21:15.398Z,102178.94
2017-12-22T07:22:17.854Z,102181.56
2017-12-22T07:23:20.330Z,102177.64
2017-12-22T07:24:22.806Z,102179.78
2017-12-22T07:25:25.278Z,102180.82
2017-12-22T07:26:27.757Z,102180.06
2017-12-22T07:27:30.243Z,102183.52
2017-12-22T07:28:32.686Z,102181.42
2017-12-22T07:29:35.143Z,102179.59
2017-12-22T07:30:37.635Z,102184.92
2017-12-22T07:31:40.093Z,102187.09
2017-12-22T07:32:42.558Z,102187.02
2017-12-22T07:33:45.012Z,102190.77
2017-12-22T07:34:47.467Z,102191.36
2017-12-22T07:35:49.955Z,102187.14
2017-12-22T07:36:52.421Z,102191.27
2017-12-22T07:37:54.878Z,102191.98
2017-12-22T07:38:57.335Z,102194.34
2017-12-22T07:39:59.790Z,102193.33
2017-12-22T07:41:02.294Z,102197.19
2017-12-22T07:42:04.753Z,102202.19
2017-12-22T07:43:07.225Z,102201.89
2017-12-22T07:44:09.701Z,102199.77
2017-12-22T07:45:12.181Z,102204.53
2017-12-22T07:46:14.650Z,102207.83
2017-12-22T07:47:17.102Z,102209.56
2017-12-22T07:48:19.601Z,102210.37
2017-12-22T07:49:22.054Z,102216.97
2017-12-22T07:50:24.506Z,102212.54
2017-12-22T07:51:26.996Z,102216.64
2017-12-22T07:52:29.464Z,102216.23
2017-12-22T07:53:31.923Z,102216.64
2017-12-22T07:54:34.402Z,102221.06
2017-12-22T07:55:36.883Z,102217.09
2017-12-22T07:56:39.364Z,102222.81
2017-12-22T07:57:41.827Z,102220.20
2017-12-22T07:58:44.281Z,102219.32
2017-12-22T07:59:46.747Z,102218.38
2017-12-22T08:00:49.215Z,102220.47
2017-12-22T08:01:51.698Z,102220.83
2017-12-22T08:02:54.165Z,102224.25
2017-12-22T08:03:56.628Z,102225.31
2017-12-22T08:04:59.096Z,102227.59
2017-12-22T08:06:01.562Z,102225.09
2017-12-22T08:07:04.040Z,102227.47
2017-12-22T08:08:06.498Z,102231.79
2017-12-22T08:09:08.960Z,102233.92
2017-12-22T08:10:11.414Z,102232.02
2017-12-22T08:11:13.884Z,102236.62
2017-12-22T08:12:16.385Z,102235.41
2017-12-22T08:13:18.883Z,102229.61
2017-12-22T08:14:21.348Z,102234.17
2017-12-22T08:15:23.812Z,102237.37
2017-12-22T08:16:26.326Z,102237.30
2017-12-22T08:17:28.816Z,102229.73
2017-12-22T08:18:31.266Z,102235.65
2017-12-22T08:19:33.741Z,102235.62
2017-12-22T08:20:36.218Z,102232.87
2017-12-22T08:21:38.675Z,102232.48
2017-12-22T08:22:41.150Z,102232.76
2017-12-22T08:23:43.612Z,102236.73
2017-12-22T08:24:46.059Z,102232.79
2017-12-22T08:25:48.517Z,102237.31
2017-12-22T08:26:50.986Z,102233.09
2017-12-22T08:27:53.457Z,102232.61
2017-12-22T08:28:55.910Z,102234.52
2017-12-22T08:29:58.358Z,102234.25
2017-12-22T08:31:00.811Z,102233.63
2017-12-22T08:32:03.264Z,102232.44
2017-12-22T08:33:05.735Z,102234.86
2017-12-22T08:34:08.202Z,102237.47
2017-12-22T08:35:10.708Z,102233.13
2017-12-22T08:36:13.175Z,102230.23
2017-12-22T08:37:15.645Z,102226.59
2017-12-22T08:38:18.132Z,102229.20
2017-12-22T08:39:20.856Z,102234.38
2017-12-22T08:40:23.322Z,102237.40
2017-12-22T08:41:25.774Z,102234.63
2017-12-22T08:42:28.226Z,102231.56
2017-12-22T08:43:30.694Z,102230.92
2017-12-22T08:44:33.178Z,102236.02
2017-12-22T08:45:35.649Z,102238.36
2017-12-22T08:46:38.152Z,102248.81
2017-12-22T08:47:40.607Z,102240.38
2017-12-22T08:48:43.108Z,102248.33
2017-12-22T08:49:45.573Z,102248.14
2017-12-22T08:50:48.044Z,102250.23
2017-12-22T08:51:50.513Z,102251.20
2017-12-22T08:52:52.984Z,102247.89
2017-12-22T08:53:55.474Z,102247.30
2017-12-22T08:54:57.937Z,102250.23
2017-12-22T08:56:00.390Z,102254.44
2017-12-22T08:57:02.849Z,102255.07
2017-12-22T08:58:05.329Z,102259.12
2017-12-22T08:59:07.825Z,102262.47
2017-12-22T09:00:10.305Z,102259.19
2017-12-22T09:01:12.754Z,102258.11
2017-12-22T09:02:15.213Z,102260.97
2017-12-22T09:03:17.772Z,102264.77
2017-12-22T09:04:20.267Z,102263.03
2017-12-22T09:05:22.725Z,102262.48
2017-12-22T09:06:25.208Z,102259.19
2017-12-22T09:07:27.671Z,102268.64
2017-12-22T09:08:30.145Z,102270.67
2017-12-22T09:09:32.614Z,102269.64
2017-12-22T09:10:35.076Z,102274.16
2017-12-22T09:11:37.527Z,102273.93
2017-12-22T09:12:39.990Z,102270.99
2017-12-22T09:13:42.446Z,102278.46
2017-12-22T09:14:44.970Z,102276.63
2017-12-22T09:15:47.430Z,102282.28
2017-12-22T09:16:49.891Z,102282.35
2017-12-22T09:17:52.439Z,102285.94
2017-12-22T09:18:54.909Z,102281.44
2017-12-22T09:19:57.409Z,102282.44
2017-12-22T09:20:59.854Z,102277.31
2017-12-22T09:22:02.362Z,102279.49
2017-12-22T09:23:04.837Z,102277.55
2017-12-22T09:24:07.319Z,102273.41
2017-12-22T09:25:09.840Z,102274.61
2017-12-22T09:26:15.954Z,102276.39
2017-12-22T09:27:18.489Z,102272.49
2017-12-22T09:28:20.939Z,102269.15
2017-12-22T09:29:23.402Z,102271.14
2017-12-22T09:30:25.890Z,102268.07
2017-12-22T09:31:28.386Z,102267.37
2017-12-22T09:32:30.848Z,102267.23
2017-12-22T09:33:33.308Z,102278.14
2017-12-22T09:34:35.766Z,102278.44
2017-12-22T09:35:38.272Z,102281.29
2017-12-22T09:36:40.851Z,102286.01
2017-12-22T09:37:43.312Z,102283.23
2017-12-22T09:38:45.827Z,102288.00
2017-12-22T09:39:48.336Z,102290.69
2017-12-22T09:40:50.844Z,102284.13
2017-12-22T09:41:53.298Z,102289.13
2017-12-22T09:42:55.799Z,102290.03
2017-12-22T09:43:58.258Z,102288.83
2017-12-22T09:45:00.723Z,102289.94
2017-12-22T09:46:03.214Z,102285.20
2017-12-22T09:47:05.733Z,102287.92
2017-12-22T09:48:08.244Z,102286.27
2017-12-22T09:49:10.698Z,102290.69
2017-12-22T09:50:13.210Z,102297.43
2017-12-22T09:51:15.687Z,102291.33
2017-12-22T09:52:18.177Z,102291.37
2017-12-22T09:53:20.648Z,102290.80
2017-12-22T09:54:23.128Z,102293.93
2017-12-22T09:55:25.585Z,102293.75
2017-12-22T09:56:28.076Z,102295.91
2017-12-22T09:57:30.545Z,102291.86
2017-12-22T09:58:33.030Z,102294.59
2017-12-22T09:59:35.501Z,102294.77
2017-12-22T10:00:38.799Z,102295.16
2017-12-22T10:01:41.306Z,102294.77
2017-12-22T10:02:43.826Z,102296.51
2017-12-22T10:03:46.278Z,102297.30
2017-12-22T10:04:48.953Z,102293.69
2017-12-22T10:05:51.428Z,102296.70
2017-12-22T10:06:53.980Z,102299.66
2017-12-22T10:07:57.062Z,102301.31
2017-12-22T10:08:59.527Z,102302.75
2017-12-22T10:10:02.021Z,102305.73
2017-12-22T10:11:04.659Z,102303.10
2017-12-22T10:12:07.159Z,102305.49
2017-12-22T10:13:09.630Z,102307.21
2017-12-22T10:14:12.137Z,102304.84
2017-12-22T10:15:14.620Z,102305.25
2017-12-22T10:16:17.113Z,102309.98
2017-12-22T10:17:19.812Z,102310.51
2017-12-22T10:18:22.341Z,102310.31
2017-12-22T10:19:24.811Z,102318.22
2017-12-22T10:20:27.316Z,102317.98
2017-12-22T10:21:30.704Z,102313.09
2017-12-22T10:22:33.186Z,102300.97
2017-12-22T10:23:35.665Z,102309.52
2017-12-22T10:24:38.253Z,102305.45
2017-12-22T10:25:40.720Z,102308.00
2017-12-22T10:26:43.188Z,102310.58
2017-12-22T10:27:45.717Z,102314.67
2017-12-22T10:28:48.183Z,102308.55
2017-12-22T10:29:50.664Z,102313.69
2017-12-22T10:30:53.120Z,102302.27
2017-12-22T10:31:55.692Z,102302.19
2017-12-22T10:32:58.172Z,102303.74
2017-12-22T10:34:00.650Z,102303.78
2017-12-22T10:35:03.175Z,102308.48
2017-12-22T10:36:05.648Z,102303.31
2017-12-22T10:37:08.106Z,102306.77
2017-12-22T10:38:10.618Z,102310.54
2017-12-22T10:39:13.476Z,102308.91
2017-12-22T10:40:15.951Z,102315.56
2017-12-22T10:41:18.418Z,102311.86
2017-12-22T10:42:20.901Z,102310.54
2017-12-22T10:43:23.356Z,102302.71
2017-12-22T10:44:25.814Z,102311.09
2017-12-22T10:45:28.292Z,102310.55
2017-12-22T10:46:30.842Z,102307.37
2017-12-22T10:47:33.322Z,102308.23
2017-12-22T10:48:35.814Z,102305.17
2017-12-22T10:49:38.270Z,102305.79
2017-12-22T10:50:40.754Z,102302.86
2017-12-22T10:51:43.242Z,102300.56
2017-12-22T10:52:45.702Z,102295.80
2017-12-22T10:53:48.167Z,102290.97
2017-12-22T10:54:50.644Z,102291.63
2017-12-22T10:55:53.118Z,102296.14
2017-12-22T10:56:55.593Z,102295.14
2017-12-22T10:57:58.051Z,102301.52
2017-12-22T10:59:00.534Z,102302.00
2017-12-22T11:00:02.990Z,102304.79
2017-12-22T11:01:05.450Z,102305.88
2017-12-22T11:02:07.919Z,102306.47
2017-12-22T11:03:10.397Z,102301.95
2017-12-22T11:04:12.862Z,102306.72
2017-12-22T11:05:15.341Z,102308.47
2017-12-22T11:06:17.835Z,102307.31
2017-12-22T11:07:20.304Z,102310.51
2017-12-22T11:08:22.779Z,102308.27
2017-12-22T11:09:25.257Z,102310.86
2017-12-22T11:10:27.723Z,102310.55
2017-12-22T11:11:30.205Z,102311.63
2017-12-22T11:12:32.693Z,102308.37
2017-12-22T11:13:35.189Z,102309.34
2017-12-22T11:14:37.661Z,102310.18
2017-12-22T11:15:40.128Z,102310.30
2017-12-22T11:16:42.584Z,102312.70
2017-12-22T11:17:45.062Z,102312.96
2017-12-22T11:18:47.521Z,102308.66
2017-12-22T11:19:49.988Z,102311.14
2017-12-22T11:20:52.482Z,102312.33
2017-12-22T11:21:54.960Z,102309.91
2017-12-22T11:22:57.434Z,102306.73
2017-12-22T11:23:59.897Z,102304.06
2017-12-22T11:25:02.360Z,102298.66
2017-12-22T11:26:04.814Z,102292.17
2017-12-22T11:27:07.289Z,102293.80
2017-12-22T11:28:09.751Z,102298.09
2017-12-22T11:29:12.221Z,102295.02
2017-12-22T11:30:14.688Z,102290.81
2017-12-22T11:31:17.172Z,102300.31
2017-12-22T11:32:19.634Z,102300.56
2017-12-22T11:33:22.115Z,102299.27
2017-12-22T11:34:24.568Z,102297.31
2017-12-22T11:35:27.032Z,102298.21
2017-12-22T11:36:29.495Z,102304.94
2017-12-22T11:37:31.955Z,102299.93
2017-12-22T11:38:34.421Z,102304.37
2017-12-22T11:39:36.909Z,102302.19
2017-12-22T11:40:39.367Z,102298.29
2017-12-22T11:41:41.831Z,102302.36
2017-12-22T11:42:44.305Z,102301.95
2017-12-22T11:43:46.771Z,102297.87
2017-12-22T11:44:49.250Z,102298.06
2017-12-22T11:45:51.715Z,102291.84
2017-12-22T11:46:54.189Z,102301.74
2017-12-22T11:47:56.684Z,102304.37
2017-12-22T11:48:59.150Z,102304.84
2017-12-22T11:50:01.611Z,102297.41
2017-12-22T11:51:04.088Z,102301.83
2017-12-22T11:52:06.587Z,102292.58
2017-12-22T11:53:09.053Z,102293.68
2017-12-22T11:54:11.514Z,102290.91
2017-12-22T11:55:13.978Z,102296.19